Terminal Aerodrome Forecast
Issued by NWS

Home | Current Version | Previous Version | Text Only | Print | Product List | Glossary On
Versions: 1 2 3 4 5 6 7 8 9 10 11 12 13 14 15 16 17 18 19 20 21 22 23
000
FTUS45 KGJT 021123
TAFMTJ
TAF
KMTJ 021123Z 0212/0312 VRB04KT P6SM BKN150
     FM021500 15004KT P6SM SCT150
     FM021900 35005KT P6SM SCT250
     FM022200 34010KT P6SM BKN150
     FM030300 13006KT P6SM BKN120
     FM030900 13007KT P6SM FEW150=

USA.gov is the U.S. government's official web portal to all federal, state and local government web resources and services.